Time;durP1;ratioP1;P1;durP2;ratioP2;P2;SDS_P1;SDS_P2;PMS_P1;PMS_P2;Temp;Humidity;BMP_temperature;BMP_pressure;BME280_temperature;BME280_humidity;BME280_pressure;Samples;Min_cycle;Max_cycle;Signal;HPM_P1;HPM_P2
2021/11/20 00:01:49;;;;;;;24.53;18.60;;;12.60;99.90;;;;;;4898605;28;20461;-81
2021/11/20 00:04:16;;;;;;;24.30;18.77;;;12.60;99.90;;;;;;4921939;28;20497;-81
2021/11/20 00:06:47;;;;;;;24.07;17.50;;;12.60;99.90;;;;;;4924512;28;20492;-82
2021/11/20 00:26:15;;;;;;;26.97;19.90;;;12.60;99.90;;;;;;5073928;23;20488;-80
2021/11/20 00:32:39;;;;;;;27.10;20.07;;;12.60;99.90;;;;;;4937438;28;20424;-81
2021/11/20 00:35:09;;;;;;;28.43;20.63;;;12.60;99.90;;;;;;4934189;28;20487;-82
2021/11/20 00:37:38;;;;;;;26.40;20.03;;;12.60;99.90;;;;;;4935459;28;22351;-81
2021/11/20 00:40:10;;;;;;;29.27;21.30;;;12.60;99.90;;;;;;4938283;28;20487;-83
2021/11/20 00:42:36;;;;;;;26.93;19.87;;;12.70;99.90;;;;;;4935215;28;20969;-81
2021/11/20 00:45:04;;;;;;;25.70;19.80;;;13.00;99.90;;;;;;4884553;28;20476;-82
2021/11/20 00:47:30;;;;;;;27.30;20.10;;;13.30;99.90;;;;;;4902862;28;20440;-83
2021/11/20 00:49:57;;;;;;;32.37;21.10;;;13.50;99.90;;;;;;4948264;28;20484;-84
2021/11/20 00:52:25;;;;;;;25.10;20.67;;;13.20;99.90;;;;;;4928001;28;20488;-82
2021/11/20 00:54:52;;;;;;;28.70;20.73;;;13.00;99.90;;;;;;4930398;28;20535;-81
2021/11/20 00:57:18;;;;;;;25.90;19.70;;;12.90;99.90;;;;;;4930344;28;20517;-81
2021/11/20 00:59:45;;;;;;;26.43;18.97;;;12.80;99.90;;;;;;4931966;28;22029;-81
2021/11/20 01:02:12;;;;;;;27.53;20.10;;;12.70;99.90;;;;;;4929663;28;20469;-83
2021/11/20 01:04:38;;;;;;;24.87;18.90;;;12.70;99.90;;;;;;4932250;28;20467;-82
2021/11/20 01:07:06;;;;;;;30.87;21.17;;;12.70;99.90;;;;;;4930815;28;20468;-81
2021/11/20 01:09:38;;;;;;;28.70;21.67;;;12.70;99.90;;;;;;4936372;28;20535;-84
2021/11/20 01:12:31;;;;;;;27.90;20.30;;;12.70;99.90;;;;;;4935079;28;20609;-81
2021/11/20 01:15:02;;;;;;;26.73;20.40;;;12.60;99.90;;;;;;4939138;28;21980;-82
2021/11/20 01:17:44;;;;;;;27.27;20.10;;;12.60;99.90;;;;;;4934816;28;20440;-81
2021/11/20 01:20:11;;;;;;;29.27;21.37;;;12.60;99.90;;;;;;4935044;28;20476;-81
2021/11/20 01:22:38;;;;;;;26.00;18.70;;;12.60;99.90;;;;;;4935281;28;20475;-82
2021/11/20 01:25:06;;;;;;;26.77;20.00;;;12.60;99.90;;;;;;4935099;28;20463;-81
2021/11/20 01:27:33;;;;;;;31.37;21.63;;;12.60;99.90;;;;;;4932938;28;20471;-80
2021/11/20 01:30:00;;;;;;;25.77;20.03;;;12.60;99.90;;;;;;4935787;28;20480;-80
2021/11/20 01:32:30;;;;;;;30.70;20.67;;;12.60;99.90;;;;;;4936388;28;20917;-81
2021/11/20 01:35:00;;;;;;;25.60;19.40;;;12.60;99.90;;;;;;4948254;28;20448;-82
2021/11/20 01:37:28;;;;;;;27.50;19.77;;;12.50;99.90;;;;;;4937412;28;20468;-81
2021/11/20 01:39:55;;;;;;;25.10;18.73;;;12.60;99.90;;;;;;4938129;28;20482;-82
2021/11/20 01:42:31;;;;;;;28.33;21.70;;;12.60;99.90;;;;;;4935467;28;20465;-81
2021/11/20 01:45:03;;;;;;;26.93;19.73;;;12.60;99.90;;;;;;4933095;28;20583;-81
2021/11/20 01:47:40;;;;;;;32.20;21.23;;;12.60;99.90;;;;;;4933750;28;20449;-81
2021/11/20 01:50:14;;;;;;;28.20;21.27;;;12.60;99.90;;;;;;4936250;28;20483;-81
2021/11/20 01:52:54;;;;;;;27.13;20.50;;;12.60;99.90;;;;;;4934255;28;21025;-81
2021/11/20 01:55:39;;;;;;;26.77;20.50;;;12.60;99.90;;;;;;4932823;28;20825;-80
2021/11/20 01:58:25;;;;;;;29.80;19.87;;;12.60;99.90;;;;;;4937409;28;20802;-82
2021/11/20 02:00:58;;;;;;;30.80;20.20;;;12.60;99.90;;;;;;4950840;28;20476;-82
2021/11/20 02:03:34;;;;;;;29.90;22.57;;;12.60;99.90;;;;;;4947516;28;22212;-82
2021/11/20 02:06:17;;;;;;;27.23;20.43;;;12.60;99.90;;;;;;4936610;28;20857;-83
2021/11/20 02:09:02;;;;;;;31.40;20.97;;;12.60;99.90;;;;;;4934647;28;20452;-83
2021/11/20 02:11:40;;;;;;;24.03;19.43;;;12.70;99.90;;;;;;4932151;28;20492;-83
2021/11/20 02:14:10;;;;;;;28.33;20.73;;;12.70;99.90;;;;;;4944551;28;20535;-85
2021/11/20 02:16:44;;;;;;;26.50;20.97;;;12.70;99.90;;;;;;4953636;28;20440;-83
2021/11/20 02:19:19;;;;;;;29.33;20.50;;;12.70;99.90;;;;;;4952749;28;20494;-83
2021/11/20 02:22:02;;;;;;;28.40;20.10;;;13.00;99.90;;;;;;4955872;28;21970;-83
2021/11/20 02:24:34;;;;;;;32.07;20.97;;;13.20;99.90;;;;;;4970849;28;20653;-83
2021/11/20 02:27:04;;;;;;;28.53;21.33;;;13.40;99.90;;;;;;4938633;28;20468;-83
2021/11/20 02:29:42;;;;;;;28.70;19.60;;;13.60;99.90;;;;;;4936537;28;20482;-83
2021/11/20 02:32:09;;;;;;;30.10;20.10;;;13.40;99.90;;;;;;4950391;28;20495;-83
2021/11/20 02:34:36;;;;;;;28.03;20.77;;;13.00;99.90;;;;;;4935174;28;20498;-83
2021/11/20 02:37:03;;;;;;;26.30;20.10;;;12.90;99.90;;;;;;4942728;28;20476;-82
2021/11/20 02:39:32;;;;;;;27.13;19.67;;;12.80;99.90;;;;;;4944946;28;20480;-82
2021/11/20 02:42:04;;;;;;;24.13;17.77;;;12.80;99.90;;;;;;4936365;28;20825;-83
2021/11/20 02:44:33;;;;;;;27.63;19.73;;;12.70;99.90;;;;;;4947961;28;20460;-82
2021/11/20 02:47:18;;;;;;;29.17;21.17;;;12.70;99.90;;;;;;4935861;28;20464;-81
2021/11/20 02:49:45;;;;;;;28.23;20.93;;;12.80;99.90;;;;;;4935359;28;20719;-84
2021/11/20 02:52:12;;;;;;;25.57;18.60;;;12.80;99.90;;;;;;4934225;28;20484;-83
2021/11/20 02:54:38;;;;;;;27.83;19.77;;;12.70;99.90;;;;;;4931012;28;20456;-82
2021/11/20 02:57:13;;;;;;;26.07;21.03;;;12.70;99.90;;;;;;4932988;28;20467;-84
2021/11/20 02:59:40;;;;;;;26.13;19.27;;;12.70;99.90;;;;;;4933006;28;20476;-83
2021/11/20 03:02:08;;;;;;;25.43;20.27;;;12.70;99.90;;;;;;4932697;28;20487;-82
2021/11/20 03:04:35;;;;;;;27.97;18.77;;;12.70;99.90;;;;;;4932115;28;20456;-83
2021/11/20 03:07:02;;;;;;;27.77;19.77;;;12.70;99.90;;;;;;4947258;28;20882;-82
2021/11/20 03:09:32;;;;;;;25.70;18.87;;;12.70;99.90;;;;;;4926380;28;20495;-83
2021/11/20 03:11:59;;;;;;;29.00;19.40;;;12.70;99.90;;;;;;4931717;28;20480;-81
2021/11/20 03:14:27;;;;;;;24.60;18.50;;;12.90;99.90;;;;;;4928562;28;20463;-82
2021/11/20 03:17:05;;;;;;;28.10;21.13;;;12.90;99.90;;;;;;4934852;28;20448;-80
2021/11/20 03:19:38;;;;;;;28.13;19.43;;;12.90;99.90;;;;;;4941607;28;20476;-82
2021/11/20 03:22:11;;;;;;;27.40;19.00;;;12.80;99.90;;;;;;4942460;28;21015;-80
2021/11/20 03:24:39;;;;;;;26.90;19.17;;;12.90;99.90;;;;;;4938328;28;20469;-80
2021/11/20 03:27:06;;;;;;;28.53;20.83;;;13.40;99.90;;;;;;4933027;28;21167;-84
2021/11/20 03:32:21;;;;;;;27.37;19.77;;;13.30;99.90;;;;;;4934572;28;20802;-83
2021/11/20 03:34:48;;;;;;;27.13;19.37;;;13.00;99.90;;;;;;4932486;28;20460;-83
2021/11/20 03:37:17;;;;;;;27.77;19.47;;;12.90;99.90;;;;;;4929963;28;20459;-83
2021/11/20 03:39:43;;;;;;;28.77;19.93;;;12.90;99.90;;;;;;4930247;28;20559;-80
2021/11/20 03:42:11;;;;;;;30.00;20.93;;;13.30;99.90;;;;;;4938272;28;21867;-82
2021/11/20 03:44:42;;;;;;;32.20;19.73;;;13.20;99.90;;;;;;4938838;28;20492;-82
2021/11/20 03:47:11;;;;;;;32.00;20.77;;;13.30;99.90;;;;;;4954938;28;20471;-84
2021/11/20 03:49:39;;;;;;;31.30;19.20;;;13.20;99.90;;;;;;5023226;23;20766;-85
2021/11/20 03:52:12;;;;;;;29.23;20.13;;;13.00;99.90;;;;;;4982998;28;20496;-84
2021/11/20 03:54:39;;;;;;;27.67;19.90;;;12.80;99.90;;;;;;4963543;28;20989;-84
2021/11/20 03:57:07;;;;;;;27.63;20.10;;;12.70;99.90;;;;;;4979003;28;20432;-82
2021/11/20 03:59:35;;;;;;;28.27;19.63;;;12.70;99.90;;;;;;4955500;28;20476;-85
2021/11/20 04:02:03;;;;;;;27.93;19.07;;;12.60;99.90;;;;;;4959311;28;20501;-80
2021/11/20 04:04:31;;;;;;;25.67;18.53;;;12.60;99.90;;;;;;4944099;28;20460;-83
2021/11/20 04:06:59;;;;;;;28.50;18.87;;;12.60;99.90;;;;;;4938251;28;20463;-83
2021/11/20 04:09:25;;;;;;;26.27;18.90;;;12.50;99.90;;;;;;4939410;28;21014;-82
2021/11/20 04:11:52;;;;;;;28.00;18.40;;;12.50;99.90;;;;;;4958796;28;20837;-82
2021/11/20 04:14:26;;;;;;;24.60;17.73;;;12.50;99.90;;;;;;4940651;28;20455;-80
2021/11/20 04:16:54;;;;;;;27.00;18.53;;;12.50;99.90;;;;;;4959737;28;20447;-81
2021/11/20 04:19:24;;;;;;;25.23;17.93;;;12.60;99.90;;;;;;4953712;28;20894;-82
2021/11/20 04:21:52;;;;;;;22.93;16.13;;;12.50;99.90;;;;;;4955010;28;20455;-82
2021/11/20 04:24:19;;;;;;;25.60;17.33;;;12.50;99.90;;;;;;4941311;28;20459;-82
2021/11/20 04:26:47;;;;;;;24.53;17.70;;;12.50;99.90;;;;;;4942769;28;20825;-81
2021/11/20 04:29:14;;;;;;;25.20;18.37;;;12.50;99.90;;;;;;4945101;28;20482;-82
2021/11/20 04:31:41;;;;;;;25.67;18.03;;;12.50;99.90;;;;;;4941760;28;20479;-85
2021/11/20 04:34:08;;;;;;;29.30;19.60;;;12.50;99.90;;;;;;4946402;28;20555;-82
2021/11/20 04:36:36;;;;;;;23.83;17.20;;;12.60;99.90;;;;;;4961051;28;20474;-84
2021/11/20 04:39:04;;;;;;;26.03;18.40;;;12.80;99.90;;;;;;4962639;28;21048;-84
2021/11/20 04:41:31;;;;;;;27.00;19.30;;;12.80;99.90;;;;;;4958785;28;20554;-83
2021/11/20 04:43:59;;;;;;;25.30;19.10;;;12.70;99.90;;;;;;4956808;28;20479;-83
2021/11/20 04:46:26;;;;;;;26.63;18.00;;;12.60;99.90;;;;;;4959131;28;20483;-84
2021/11/20 04:48:53;;;;;;;25.00;18.00;;;12.50;99.90;;;;;;5103688;23;21094;-83
2021/11/20 04:51:24;;;;;;;28.43;19.53;;;12.50;99.90;;;;;;4938021;28;20492;-82
2021/11/20 04:53:54;;;;;;;25.87;18.67;;;12.50;99.90;;;;;;4917664;28;20456;-82
2021/11/20 04:56:26;;;;;;;27.77;17.47;;;12.50;99.90;;;;;;4936130;28;20830;-82
2021/11/20 04:58:54;;;;;;;23.27;16.60;;;12.50;99.90;;;;;;4917211;28;20464;-82
2021/11/20 05:01:24;;;;;;;23.60;17.60;;;12.40;99.90;;;;;;4915219;28;20503;-82
2021/11/20 05:03:53;;;;;;;24.20;17.93;;;12.40;99.90;;;;;;4914823;28;20461;-82
2021/11/20 05:09:34;;;;;;;23.87;17.07;;;12.50;99.90;;;;;;4935810;28;21112;-83
2021/11/20 05:12:19;;;;;;;24.43;17.07;;;12.50;99.90;;;;;;4933272;28;20476;-83
2021/11/20 05:14:45;;;;;;;27.00;19.03;;;12.80;99.90;;;;;;4917632;28;20453;-83
2021/11/20 05:17:12;;;;;;;24.93;18.60;;;12.90;99.90;;;;;;4934669;28;20472;-83
2021/11/20 05:19:39;;;;;;;27.47;19.27;;;13.10;99.90;;;;;;4921081;28;21005;-83
2021/11/20 05:22:06;;;;;;;26.27;17.60;;;13.10;99.90;;;;;;4921205;28;20996;-82
2021/11/20 05:24:35;;;;;;;22.73;17.40;;;12.80;99.90;;;;;;4935186;28;20475;-81
2021/11/20 05:27:11;;;;;;;22.90;17.30;;;12.60;99.90;;;;;;4934123;28;21170;-82
2021/11/20 05:29:57;;;;;;;24.00;16.33;;;12.50;99.90;;;;;;4937234;28;20488;-83
2021/11/20 05:32:24;;;;;;;22.90;17.10;;;12.40;99.90;;;;;;4930219;28;20493;-82
2021/11/20 05:34:51;;;;;;;21.90;17.00;;;12.60;99.90;;;;;;4934991;28;20448;-82
2021/11/20 05:37:18;;;;;;;20.27;16.27;;;12.70;99.90;;;;;;4933619;28;20463;-80
2021/11/20 05:39:45;;;;;;;24.53;18.30;;;12.60;99.90;;;;;;5100745;23;20519;-82
2021/11/20 05:42:12;;;;;;;25.23;18.60;;;12.60;99.90;;;;;;4918324;28;20469;-82
2021/11/20 05:45:10;;;;;;;21.10;17.53;;;12.60;99.90;;;;;;4926899;28;20576;-83
2021/11/20 05:47:36;;;;;;;24.60;17.47;;;12.60;99.90;;;;;;4940797;28;20468;-81
2021/11/20 05:50:17;;;;;;;24.77;18.10;;;12.50;99.90;;;;;;4920761;28;20495;-84
2021/11/20 05:52:45;;;;;;;23.50;17.70;;;13.00;99.90;;;;;;4949000;28;22036;-81
2021/11/20 05:55:13;;;;;;;23.47;17.30;;;13.00;99.90;;;;;;4920720;28;20472;-82
2021/11/20 05:57:39;;;;;;;22.90;17.40;;;12.80;99.90;;;;;;4936098;28;20511;-81
2021/11/20 06:00:11;;;;;;;23.60;17.03;;;12.70;99.90;;;;;;4925969;28;20857;-81
2021/11/20 06:02:38;;;;;;;26.70;19.10;;;12.90;99.90;;;;;;4919625;28;20542;-82
2021/11/20 06:05:15;;;;;;;25.10;17.97;;;13.10;99.90;;;;;;4921181;28;20467;-84
2021/11/20 06:07:42;;;;;;;24.37;16.97;;;13.30;99.90;;;;;;4933294;28;20502;-84
2021/11/20 06:10:09;;;;;;;25.73;18.83;;;13.20;99.90;;;;;;4935837;28;21012;-84
2021/11/20 06:12:36;;;;;;;24.57;17.77;;;13.00;99.90;;;;;;4919600;28;20471;-82
2021/11/20 06:15:03;;;;;;;29.07;19.10;;;13.10;99.90;;;;;;4931296;28;20836;-83
2021/11/20 06:17:30;;;;;;;23.93;17.43;;;13.00;99.90;;;;;;4920238;28;20475;-83
2021/11/20 06:20:05;;;;;;;25.50;17.50;;;12.90;99.90;;;;;;4935600;28;20515;-82
2021/11/20 06:22:33;;;;;;;24.50;16.70;;;12.90;99.90;;;;;;4939285;28;20444;-82
2021/11/20 06:24:59;;;;;;;23.60;17.27;;;13.10;99.90;;;;;;4911090;28;20464;-83
2021/11/20 06:27:26;;;;;;;24.13;17.10;;;13.20;99.90;;;;;;4935766;28;20476;-82
2021/11/20 06:29:53;;;;;;;24.10;16.60;;;13.10;99.90;;;;;;5062121;23;20512;-82
2021/11/20 06:32:38;;;;;;;23.53;16.23;;;13.10;99.90;;;;;;4918197;28;20497;-84
2021/11/20 06:35:10;;;;;;;24.57;16.67;;;13.10;99.90;;;;;;4936773;28;20438;-82
2021/11/20 06:37:39;;;;;;;25.30;16.63;;;13.00;99.90;;;;;;4943211;28;20488;-83
2021/11/20 06:40:09;;;;;;;24.63;16.77;;;13.00;99.90;;;;;;4935045;28;20491;-82
2021/11/20 06:42:40;;;;;;;24.03;15.57;;;12.90;99.90;;;;;;4918078;28;20470;-82
2021/11/20 06:45:35;;;;;;;18.33;14.53;;;12.90;99.90;;;;;;4899809;29;20447;-80
2021/11/20 06:48:22;;;;;;;23.53;15.90;;;12.70;99.90;;;;;;4896267;29;20563;-83
2021/11/20 06:50:52;;;;;;;20.30;15.17;;;12.70;99.90;;;;;;4897107;29;20839;-83
2021/11/20 06:53:20;;;;;;;21.10;14.70;;;12.80;99.90;;;;;;4899447;29;20852;-82
2021/11/20 06:55:47;;;;;;;21.40;15.00;;;12.90;99.90;;;;;;4897028;29;20464;-80
2021/11/20 07:01:18;;;;;;;20.90;15.20;;;12.80;99.90;;;;;;4898584;29;20843;-82
2021/11/20 07:03:53;;;;;;;20.97;13.70;;;12.70;99.90;;;;;;4898179;29;20466;-81
2021/11/20 07:06:21;;;;;;;18.90;14.00;;;12.90;99.90;;;;;;4901293;29;21227;-82
2021/11/20 07:08:51;;;;;;;18.80;13.13;;;12.80;99.90;;;;;;4899276;28;20466;-82
2021/11/20 07:11:21;;;;;;;21.30;13.90;;;12.90;99.90;;;;;;4897326;29;20458;-81
2021/11/20 07:13:53;;;;;;;22.70;13.97;;;12.80;99.90;;;;;;4895687;29;20494;-82
2021/11/20 07:16:35;;;;;;;19.43;13.53;;;12.70;99.90;;;;;;4894054;29;20452;-83
2021/11/20 07:19:05;;;;;;;21.87;13.50;;;12.80;99.90;;;;;;4896987;29;20537;-80
2021/11/20 07:21:32;;;;;;;16.67;12.03;;;12.70;99.90;;;;;;4900882;29;20546;-84
2021/11/20 07:24:04;;;;;;;20.03;13.73;;;12.70;99.90;;;;;;4897848;29;20556;-82
2021/11/20 07:26:31;;;;;;;17.13;12.03;;;12.70;99.90;;;;;;4892912;29;20469;-83
2021/11/20 07:29:00;;;;;;;18.40;12.53;;;12.80;99.90;;;;;;4900196;29;20486;-83
2021/11/20 07:31:41;;;;;;;19.77;13.90;;;12.70;99.90;;;;;;4908919;28;20987;-82
2021/11/20 07:34:09;;;;;;;17.77;12.40;;;12.80;99.90;;;;;;4907763;28;20621;-83
2021/11/20 07:36:36;;;;;;;16.90;13.70;;;12.70;99.90;;;;;;4898174;29;20454;-83
2021/11/20 07:39:10;;;;;;;16.27;12.70;;;12.60;99.90;;;;;;4903891;29;20541;-83
2021/11/20 07:41:37;;;;;;;16.67;12.40;;;12.60;99.90;;;;;;4901130;29;20458;-83
2021/11/20 07:44:04;;;;;;;17.40;12.90;;;12.70;99.90;;;;;;4896685;29;21007;-81
2021/11/20 07:46:32;;;;;;;19.83;14.50;;;12.90;99.90;;;;;;4898942;29;20463;-82
2021/11/20 07:49:00;;;;;;;19.63;13.60;;;13.00;99.90;;;;;;4911296;28;20486;-82
2021/11/20 07:51:28;;;;;;;17.83;12.77;;;12.90;99.90;;;;;;4899653;29;20467;-82
2021/11/20 07:53:55;;;;;;;19.00;12.90;;;12.80;99.90;;;;;;4895911;29;20573;-82
2021/11/20 07:56:23;;;;;;;18.07;14.70;;;12.80;99.90;;;;;;4896674;29;20466;-83
2021/11/20 07:58:50;;;;;;;18.97;13.60;;;12.80;99.90;;;;;;4894334;29;20467;-81
2021/11/20 08:01:17;;;;;;;20.13;14.73;;;12.80;99.90;;;;;;4892709;29;20470;-82
2021/11/20 08:03:44;;;;;;;21.67;14.77;;;12.90;99.90;;;;;;4897589;29;20505;-82
2021/11/20 08:06:10;;;;;;;21.63;14.13;;;12.80;99.90;;;;;;4896060;29;22977;-81
2021/11/20 08:08:38;;;;;;;19.90;13.23;;;12.80;99.90;;;;;;4896185;29;20818;-82
2021/11/20 08:11:07;;;;;;;20.13;14.40;;;12.60;99.90;;;;;;4893207;29;20473;-82
2021/11/20 08:13:37;;;;;;;19.80;14.80;;;12.50;99.90;;;;;;4898080;29;20508;-83
2021/11/20 08:16:05;;;;;;;21.87;15.23;;;12.70;99.90;;;;;;4897263;29;20473;-82
2021/11/20 08:18:34;;;;;;;23.20;14.63;;;12.90;99.90;;;;;;4892467;29;20475;-80
2021/11/20 08:21:03;;;;;;;26.13;15.63;;;12.90;99.90;;;;;;4900863;29;20470;-82
2021/11/20 08:23:34;;;;;;;18.30;13.97;;;12.90;99.90;;;;;;4913814;28;20461;-81
2021/11/20 08:26:02;;;;;;;22.00;15.20;;;12.90;99.90;;;;;;4899664;29;20463;-82
2021/11/20 08:28:29;;;;;;;21.73;14.90;;;12.90;99.90;;;;;;4903244;29;20565;-81
2021/11/20 08:30:59;;;;;;;19.63;14.20;;;12.70;99.90;;;;;;4939509;23;20562;-82
2021/11/20 08:33:31;;;;;;;19.50;14.47;;;12.80;99.90;;;;;;4935778;28;20484;-85
2021/11/20 08:35:58;;;;;;;22.40;15.47;;;13.00;99.90;;;;;;4936609;28;20464;-82
2021/11/20 08:38:25;;;;;;;23.63;15.50;;;13.00;99.90;;;;;;4935411;28;20471;-82
2021/11/20 08:40:54;;;;;;;20.80;15.07;;;12.90;99.90;;;;;;4939712;28;20847;-82
2021/11/20 08:43:28;;;;;;;21.90;14.73;;;13.00;99.90;;;;;;4938472;28;20471;-84
2021/11/20 08:45:57;;;;;;;24.07;15.47;;;13.00;99.90;;;;;;4951964;28;20455;-82
2021/11/20 08:48:23;;;;;;;25.13;16.07;;;12.90;99.90;;;;;;4957588;28;20463;-83
2021/11/20 08:51:00;;;;;;;25.10;16.00;;;12.90;99.90;;;;;;4941957;28;20487;-83
2021/11/20 08:53:29;;;;;;;25.20;16.37;;;12.90;99.90;;;;;;4954121;28;20483;-82
2021/11/20 08:55:58;;;;;;;29.80;18.43;;;13.00;99.90;;;;;;4940448;28;20509;-83
2021/11/20 08:58:27;;;;;;;28.40;16.97;;;13.00;99.90;;;;;;4940583;28;20502;-85
2021/11/20 09:01:06;;;;;;;25.50;16.80;;;12.90;99.90;;;;;;4956821;28;20891;-83
2021/11/20 09:03:57;;;;;;;27.03;16.50;;;12.90;99.90;;;;;;4941561;28;21667;-82
2021/11/20 09:09:45;;;;;;;24.23;15.50;;;12.80;99.90;;;;;;4952300;23;20532;-83
2021/11/20 09:12:40;;;;;;;25.43;16.50;;;12.70;99.90;;;;;;4923446;28;20496;-84
2021/11/20 09:15:28;;;;;;;24.77;15.13;;;12.80;99.90;;;;;;4928287;28;20469;-83
2021/11/20 09:17:55;;;;;;;25.37;16.93;;;12.80;99.90;;;;;;4913268;28;20498;-83
2021/11/20 09:20:22;;;;;;;23.57;16.17;;;12.90;99.90;;;;;;4911847;28;20486;-82
2021/11/20 09:22:49;;;;;;;28.10;17.30;;;12.90;99.90;;;;;;4927495;28;20829;-79
2021/11/20 09:25:17;;;;;;;25.50;15.10;;;12.90;99.90;;;;;;4933139;28;20454;-82
2021/11/20 09:28:08;;;;;;;25.23;16.17;;;12.90;99.90;;;;;;4924981;28;20465;-82
2021/11/20 09:30:46;;;;;;;23.43;16.03;;;12.90;99.90;;;;;;4925450;28;20933;-83
2021/11/20 09:33:14;;;;;;;23.20;15.40;;;12.90;99.90;;;;;;4924141;28;20994;-83
2021/11/20 09:35:45;;;;;;;25.80;15.63;;;12.80;99.90;;;;;;4902488;28;20472;-83
2021/11/20 09:38:14;;;;;;;25.03;15.70;;;13.00;99.90;;;;;;4903521;28;20466;-83
2021/11/20 09:40:51;;;;;;;23.10;14.90;;;13.00;99.90;;;;;;4918437;28;20494;-84
2021/11/20 09:43:22;;;;;;;23.30;16.20;;;12.80;99.90;;;;;;4923037;28;20457;-84
2021/11/20 09:46:00;;;;;;;25.60;15.83;;;13.00;99.90;;;;;;4921083;28;20858;-82
2021/11/20 09:48:44;;;;;;;25.13;15.40;;;13.00;99.90;;;;;;4919739;28;20457;-83
2021/11/20 09:51:47;;;;;;;22.13;15.13;;;13.10;99.90;;;;;;4920524;28;20464;-83
2021/11/20 09:54:17;;;;;;;23.07;16.27;;;13.10;99.90;;;;;;4833268;28;20493;-83
2021/11/20 09:56:53;;;;;;;23.53;15.03;;;12.90;99.90;;;;;;4890036;28;20664;-84
2021/11/20 09:59:39;;;;;;;26.03;15.50;;;13.00;99.90;;;;;;4921379;28;20484;-81
2021/11/20 10:02:32;;;;;;;23.80;16.03;;;13.10;99.90;;;;;;4915821;28;20484;-83
2021/11/20 10:16:08;;;;;;;22.27;15.50;;;12.80;99.90;;;;;;4922674;28;20899;-83
2021/11/20 10:26:42;;;;;;;21.30;15.17;;;13.30;99.90;;;;;;4823185;29;20453;-81
2021/11/20 10:29:39;;;;;;;20.07;15.07;;;13.20;99.20;;;;;;4809519;29;20505;-81
2021/11/20 10:32:29;;;;;;;21.87;14.57;;;12.90;99.90;;;;;;4826311;29;20540;-82
2021/11/20 10:35:48;;;;;;;19.57;14.43;;;12.60;99.90;;;;;;4848704;28;21023;-83
2021/11/20 10:38:20;;;;;;;19.97;14.60;;;12.60;99.90;;;;;;4900827;29;20509;-81
2021/11/20 10:40:53;;;;;;;19.37;15.03;;;13.00;99.90;;;;;;4900483;29;21071;-82
2021/11/20 10:43:36;;;;;;;18.90;14.00;;;13.00;99.80;;;;;;4899773;29;22017;-82
2021/11/20 10:46:22;;;;;;;20.40;14.07;;;12.90;99.90;;;;;;4899028;29;20474;-83
2021/11/20 11:39:04;;;;;;;16.57;12.63;;;12.30;99.90;;;;;;4906665;28;20468;-83
2021/11/20 11:42:00;;;;;;;15.50;11.40;;;12.30;99.90;;;;;;4903995;28;20456;-81
2021/11/20 11:44:36;;;;;;;16.10;11.90;;;12.40;99.90;;;;;;4926018;28;20450;-83
2021/11/20 11:47:21;;;;;;;16.10;11.70;;;12.90;99.70;;;;;;4805954;28;20868;-82
2021/11/20 11:50:25;;;;;;;15.60;11.20;;;13.00;98.70;;;;;;4930112;28;20478;-82
2021/11/20 11:53:20;;;;;;;16.27;12.03;;;12.90;98.30;;;;;;4929528;28;20449;-83
2021/11/20 11:55:49;;;;;;;20.27;12.57;;;12.80;98.40;;;;;;4843413;28;20454;-82
2021/11/20 11:58:30;;;;;;;15.80;11.77;;;12.80;98.70;;;;;;4915564;28;20545;-84
2021/11/20 12:01:08;;;;;;;16.10;11.27;;;12.60;99.10;;;;;;4924932;28;20481;-83
2021/11/20 12:03:42;;;;;;;17.23;12.13;;;12.60;99.20;;;;;;4932946;28;20576;-84
2021/11/20 12:09:48;;;;;;;17.30;12.30;;;12.90;98.30;;;;;;4872820;29;22120;-82
2021/11/20 12:13:04;;;;;;;15.67;12.07;;;12.90;98.00;;;;;;4908183;28;20446;-82
2021/11/20 12:18:39;;;;;;;18.60;12.10;;;12.70;97.90;;;;;;4928020;28;20445;-82
2021/11/20 12:21:16;;;;;;;15.63;11.80;;;12.70;98.20;;;;;;4931768;28;20945;-82
2021/11/20 12:24:24;;;;;;;14.50;11.93;;;12.60;98.40;;;;;;4928106;28;20784;-83
2021/11/20 12:27:05;;;;;;;14.43;11.90;;;12.80;98.60;;;;;;4931516;28;20916;-81
2021/11/20 12:29:58;;;;;;;14.70;10.97;;;12.60;98.40;;;;;;4925506;23;20555;-83
2021/11/20 12:32:44;;;;;;;13.87;11.37;;;12.40;98.80;;;;;;4905096;29;20504;-81
2021/11/20 12:35:40;;;;;;;15.83;11.43;;;12.30;98.90;;;;;;4905570;29;20489;-83
2021/11/20 12:38:37;;;;;;;15.60;11.20;;;12.70;98.30;;;;;;4909163;29;20453;-82
2021/11/20 12:41:20;;;;;;;15.07;11.30;;;12.90;97.50;;;;;;4885548;29;20472;-82
2021/11/20 12:44:22;;;;;;;15.23;11.20;;;12.70;97.20;;;;;;4900406;29;21004;-83
2021/11/20 12:47:34;;;;;;;14.80;10.97;;;12.60;97.80;;;;;;4886463;29;22281;-81
2021/11/20 12:50:04;;;;;;;16.37;10.33;;;12.40;98.30;;;;;;4872240;29;20489;-82
2021/11/20 12:53:15;;;;;;;16.37;12.13;;;12.60;98.20;;;;;;4891768;29;20467;-81
2021/11/20 12:55:51;;;;;;;15.40;10.80;;;12.80;97.90;;;;;;4889981;29;20745;-85
2021/11/20 12:58:39;;;;;;;15.33;11.70;;;12.90;97.00;;;;;;4888220;29;20853;-84
2021/11/20 13:01:15;;;;;;;16.60;11.97;;;12.80;96.90;;;;;;4906214;28;20462;-85
2021/11/20 13:03:45;;;;;;;14.47;11.67;;;12.60;97.20;;;;;;4907468;28;20522;-83
2021/11/20 13:06:26;;;;;;;16.03;11.50;;;12.80;97.00;;;;;;4910091;28;20451;-83
2021/11/20 13:09:08;;;;;;;15.97;12.27;;;12.60;97.30;;;;;;4905976;28;20475;-82
2021/11/20 13:11:53;;;;;;;14.20;10.63;;;12.80;97.20;;;;;;4907281;29;20455;-82
2021/11/20 13:14:45;;;;;;;15.17;12.20;;;12.90;96.90;;;;;;4897301;29;20467;-81
2021/11/20 13:17:21;;;;;;;19.70;13.23;;;13.00;96.20;;;;;;4901142;29;20450;-82
2021/11/20 13:20:35;;;;;;;20.10;14.50;;;13.00;96.20;;;;;;4887725;29;20826;-83
2021/11/20 13:23:10;;;;;;;15.23;12.20;;;12.60;96.80;;;;;;4887903;29;20446;-81
2021/11/20 13:26:01;;;;;;;16.67;11.93;;;12.40;97.40;;;;;;4886552;29;20468;-82
2021/11/20 13:28:41;;;;;;;14.83;12.17;;;12.70;97.30;;;;;;4889638;29;20466;-81
2021/11/20 13:31:10;;;;;;;13.63;11.70;;;12.80;96.40;;;;;;4883616;29;20451;-84
2021/11/20 13:33:46;;;;;;;16.00;12.10;;;12.60;96.80;;;;;;4886894;29;20556;-82
2021/11/20 13:36:14;;;;;;;15.63;12.20;;;12.40;97.20;;;;;;4885169;29;20466;-82
2021/11/20 13:38:41;;;;;;;16.37;12.97;;;12.40;97.50;;;;;;4885464;29;20469;-81
2021/11/20 13:41:08;;;;;;;15.97;13.00;;;12.40;97.70;;;;;;4886348;29;21952;-82
2021/11/20 13:43:39;;;;;;;15.63;12.50;;;12.40;97.80;;;;;;4888583;29;20554;-81
2021/11/20 13:46:12;;;;;;;16.37;12.93;;;12.40;97.70;;;;;;4886899;29;20462;-80
2021/11/20 13:48:40;;;;;;;20.23;14.77;;;12.40;97.60;;;;;;4886582;29;20510;-83
2021/11/20 13:51:20;;;;;;;17.50;12.13;;;12.30;97.50;;;;;;4886380;29;20505;-83
2021/11/20 13:53:53;;;;;;;17.80;13.30;;;12.30;97.80;;;;;;4869723;29;20466;-82
2021/11/20 13:56:35;;;;;;;17.10;12.90;;;12.30;97.90;;;;;;4888755;29;20451;-82
2021/11/20 13:59:17;;;;;;;17.20;12.80;;;12.30;97.80;;;;;;4832206;29;20475;-83
2021/11/20 14:01:50;;;;;;;16.93;12.83;;;12.50;97.70;;;;;;4882452;29;21348;-83
2021/11/20 14:04:19;;;;;;;17.43;12.80;;;12.50;97.40;;;;;;4888206;29;20455;-83
2021/11/20 14:06:58;;;;;;;15.37;12.90;;;12.40;97.40;;;;;;4898837;29;20550;-82
2021/11/20 14:09:25;;;;;;;15.37;11.47;;;12.40;97.40;;;;;;4883378;29;20497;-81
2021/11/20 14:12:14;;;;;;;17.97;12.83;;;12.70;97.20;;;;;;4879322;29;20471;-84
2021/11/20 14:14:44;;;;;;;16.43;13.07;;;13.00;96.10;;;;;;4885453;29;20490;-85
2021/11/20 14:17:16;;;;;;;15.37;11.80;;;12.80;96.20;;;;;;4867243;29;22343;-81
2021/11/20 14:19:44;;;;;;;16.43;13.20;;;12.80;96.20;;;;;;4889695;29;20566;-81
2021/11/20 14:22:15;;;;;;;14.50;11.53;;;12.60;96.40;;;;;;4889354;29;20492;-84
2021/11/20 14:24:46;;;;;;;18.53;13.30;;;13.00;96.10;;;;;;4891003;29;20468;-83
2021/11/20 14:27:21;;;;;;;16.53;13.00;;;12.90;95.90;;;;;;4890691;29;20459;-83
2021/11/20 14:29:51;;;;;;;18.07;12.57;;;13.00;95.90;;;;;;4900812;29;21278;-81
2021/11/20 14:32:20;;;;;;;16.30;11.57;;;13.10;95.70;;;;;;4898487;29;20959;-82
2021/11/20 14:34:48;;;;;;;17.03;12.10;;;13.00;95.90;;;;;;4886244;29;20494;-82
2021/11/20 14:37:30;;;;;;;18.33;13.10;;;13.00;95.80;;;;;;4884646;29;20455;-82
2021/11/20 14:40:03;;;;;;;17.83;13.17;;;12.80;96.30;;;;;;4884254;29;20478;-82
2021/11/20 14:42:33;;;;;;;15.53;11.47;;;12.80;96.30;;;;;;4884535;29;20469;-81
2021/11/20 14:45:07;;;;;;;15.50;10.70;;;12.70;96.30;;;;;;4885889;29;20466;-83
2021/11/20 14:47:46;;;;;;;16.90;11.10;;;12.70;96.40;;;;;;4901064;29;20471;-83
2021/11/20 14:50:19;;;;;;;16.23;10.90;;;12.50;96.60;;;;;;4886989;29;20490;-84